createdAt,value
2022-11-20T00:01:28.802Z,553.17
2022-11-20T00:03:58.567Z,554.28
2022-11-20T00:06:29.299Z,553.55
2022-11-20T00:08:58.137Z,550.33
2022-11-20T00:11:26.538Z,556.15
2022-11-20T00:13:58.073Z,553.17
2022-11-20T00:16:26.546Z,559.08
2022-11-20T00:18:53.713Z,552.30
2022-11-20T00:21:23.304Z,563.60
2022-11-20T00:23:51.165Z,561.75
2022-11-20T00:26:19.554Z,577.88
2022-11-20T00:28:52.066Z,566.85
2022-11-20T00:31:21.659Z,567.45
2022-11-20T00:33:48.811Z,570.13
2022-11-20T00:36:20.973Z,560.75
2022-11-20T00:38:47.999Z,557.80
2022-11-20T00:41:18.359Z,559.40
2022-11-20T00:43:44.992Z,565.77
2022-11-20T00:46:16.652Z,557.40
2022-11-20T00:48:44.061Z,561.33
2022-11-20T00:51:13.194Z,560.45
2022-11-20T00:53:39.797Z,564.22
2022-11-20T00:56:13.570Z,564.05
2022-11-20T00:58:42.731Z,556.22
2022-11-20T01:01:18.576Z,558.90
2022-11-20T01:03:48.751Z,554.33
2022-11-20T01:06:20.391Z,545.03
2022-11-20T01:08:48.600Z,540.20
2022-11-20T01:11:22.586Z,537.05
2022-11-20T01:13:52.518Z,530.58
2022-11-20T01:16:31.931Z,533.30
2022-11-20T01:19:00.750Z,541.33
2022-11-20T01:21:30.400Z,538.60
2022-11-20T01:23:58.161Z,543.28
2022-11-20T01:26:27.769Z,545.53
2022-11-20T01:28:55.362Z,534.15
2022-11-20T01:31:23.203Z,538.70
2022-11-20T01:33:52.374Z,535.72
2022-11-20T01:36:21.097Z,539.67
2022-11-20T01:38:48.418Z,536.03
2022-11-20T01:41:35.237Z,534.97
2022-11-20T01:44:03.148Z,537.63
2022-11-20T01:46:30.688Z,540.22
2022-11-20T01:49:18.489Z,538.50
2022-11-20T01:51:51.825Z,541.42
2022-11-20T01:54:26.382Z,541.42
2022-11-20T01:56:57.490Z,540.65
2022-11-20T01:59:25.329Z,537.38
2022-11-20T02:01:54.163Z,544.10
2022-11-20T02:04:24.575Z,550.72
2022-11-20T02:07:01.027Z,548.67
2022-11-20T02:09:28.723Z,540.75
2022-11-20T02:11:56.078Z,541.47
2022-11-20T02:14:24.053Z,547.15
2022-11-20T02:16:51.644Z,549.65
2022-11-20T02:19:26.018Z,549.40
2022-11-20T02:22:01.544Z,546.95
2022-11-20T02:24:37.406Z,538.95
2022-11-20T02:27:10.878Z,533.83
2022-11-20T02:29:48.760Z,529.72
2022-11-20T02:32:40.454Z,528.17
2022-11-20T02:35:09.833Z,528.72
2022-11-20T02:37:40.997Z,536.90
2022-11-20T02:40:08.440Z,532.67
2022-11-20T02:42:35.488Z,529.92
2022-11-20T02:45:02.120Z,531.80
2022-11-20T02:47:28.719Z,528.38
2022-11-20T02:49:55.347Z,529.63
2022-11-20T02:52:21.895Z,527.27
2022-11-20T02:54:48.655Z,518.08
2022-11-20T02:57:15.365Z,518.10
2022-11-20T02:59:42.021Z,512.58
2022-11-20T03:02:08.607Z,518.05
2022-11-20T03:04:35.268Z,516.17
2022-11-20T03:07:02.064Z,510.38
2022-11-20T03:09:28.756Z,512.33
2022-11-20T03:11:55.331Z,511.98
2022-11-20T03:14:21.980Z,477.55
2022-11-20T03:16:48.539Z,503.05
2022-11-20T03:19:15.117Z,510.67
2022-11-20T03:21:41.640Z,511.08
2022-11-20T03:24:08.608Z,507.38
2022-11-20T03:26:35.225Z,504.25
2022-11-20T03:29:03.803Z,507.92
2022-11-20T03:31:33.214Z,507.25
2022-11-20T03:34:00.153Z,505.10
2022-11-20T03:36:27.464Z,504.58
2022-11-20T03:38:57.642Z,506.60
2022-11-20T03:41:29.641Z,501.13
2022-11-20T03:43:59.004Z,499.73
2022-11-20T03:46:26.443Z,500.88
2022-11-20T03:48:53.459Z,503.33
2022-11-20T03:51:25.759Z,504.90
2022-11-20T03:53:54.212Z,498.85
2022-11-20T03:56:24.418Z,497.10
2022-11-20T03:58:51.055Z,502.02
2022-11-20T04:01:29.139Z,501.48
2022-11-20T04:03:57.411Z,503.20
2022-11-20T04:06:29.075Z,499.00
2022-11-20T04:08:57.533Z,498.38
2022-11-20T04:11:27.113Z,498.80
2022-11-20T04:13:56.185Z,497.85
2022-11-20T04:16:24.441Z,501.75
2022-11-20T04:18:56.027Z,500.77
2022-11-20T04:21:23.895Z,499.75
2022-11-20T04:23:51.673Z,502.52
2022-11-20T04:26:18.455Z,504.23
2022-11-20T04:28:44.982Z,502.87
2022-11-20T04:31:14.363Z,504.33
2022-11-20T04:33:41.326Z,502.83
2022-11-20T04:36:16.585Z,502.85
2022-11-20T04:38:43.521Z,507.60
2022-11-20T04:41:16.472Z,502.38
2022-11-20T04:43:46.767Z,506.73
2022-11-20T04:46:13.288Z,505.77
2022-11-20T04:48:39.866Z,506.98
2022-11-20T04:51:06.846Z,509.52
2022-11-20T04:53:33.638Z,509.15
2022-11-20T04:56:05.806Z,510.98
2022-11-20T04:58:32.983Z,509.90
2022-11-20T05:01:04.185Z,513.30
2022-11-20T05:03:31.223Z,518.80
2022-11-20T05:06:01.364Z,522.33
2022-11-20T05:08:28.324Z,526.30
2022-11-20T05:10:54.927Z,515.03
2022-11-20T05:13:21.472Z,510.65
2022-11-20T05:15:47.985Z,515.03
2022-11-20T05:18:14.731Z,513.03
2022-11-20T05:20:41.277Z,513.85
2022-11-20T05:23:07.965Z,507.40
2022-11-20T05:25:34.683Z,513.47
2022-11-20T05:28:01.608Z,510.73
2022-11-20T05:30:28.183Z,504.00
2022-11-20T05:32:54.717Z,505.58
2022-11-20T05:35:21.322Z,502.15
2022-11-20T05:37:47.917Z,505.70
2022-11-20T05:40:14.632Z,501.97
2022-11-20T05:42:41.190Z,504.13
2022-11-20T05:45:08.421Z,504.88
2022-11-20T05:47:35.988Z,504.98
2022-11-20T05:50:03.018Z,505.67
2022-11-20T05:52:30.649Z,507.65
2022-11-20T05:54:57.824Z,508.45
2022-11-20T05:57:24.378Z,506.42
2022-11-20T05:59:51.172Z,504.92
2022-11-20T06:02:17.820Z,498.42
2022-11-20T06:04:44.414Z,496.13
2022-11-20T06:07:11.462Z,499.23
2022-11-20T06:09:38.131Z,500.05
2022-11-20T06:12:04.980Z,497.10
2022-11-20T06:14:31.541Z,497.55
2022-11-20T06:16:58.268Z,493.35
2022-11-20T06:19:24.986Z,499.65
2022-11-20T06:21:51.879Z,497.50
2022-11-20T06:24:19.188Z,497.70
2022-11-20T06:26:45.981Z,499.90
2022-11-20T06:29:12.709Z,499.35
2022-11-20T06:31:39.300Z,496.67
2022-11-20T06:34:07.142Z,501.00
2022-11-20T06:36:34.247Z,495.83
2022-11-20T06:39:01.817Z,497.77
2022-11-20T06:41:28.951Z,498.33
2022-11-20T06:43:55.655Z,503.67
2022-11-20T06:46:22.754Z,490.90
2022-11-20T06:48:50.578Z,489.43
2022-11-20T06:51:20.036Z,489.00
2022-11-20T06:53:46.867Z,493.65
2022-11-20T06:56:14.088Z,492.58
2022-11-20T06:58:40.675Z,494.45
2022-11-20T07:01:10.675Z,501.35
2022-11-20T07:03:41.223Z,500.25
2022-11-20T07:06:08.428Z,500.70
2022-11-20T07:08:35.881Z,494.55
2022-11-20T07:11:05.737Z,498.38
2022-11-20T07:13:32.889Z,496.50
2022-11-20T07:16:06.324Z,496.80
2022-11-20T07:18:33.120Z,502.38
2022-11-20T07:21:04.157Z,502.80
2022-11-20T07:23:30.854Z,509.40
2022-11-20T07:25:57.485Z,513.87
2022-11-20T07:28:24.086Z,514.08
2022-11-20T07:30:56.561Z,514.38
2022-11-20T07:33:23.195Z,513.05
2022-11-20T07:35:49.815Z,516.58
2022-11-20T07:38:16.564Z,504.00
2022-11-20T07:40:43.146Z,517.75
2022-11-20T07:43:09.724Z,517.00
2022-11-20T07:45:36.724Z,513.47
2022-11-20T07:48:03.579Z,511.38
2022-11-20T07:50:30.241Z,512.58
2022-11-20T07:53:05.042Z,508.70
2022-11-20T07:55:32.193Z,514.60
2022-11-20T07:57:59.432Z,502.42
2022-11-20T08:00:27.581Z,513.27
2022-11-20T08:02:54.509Z,515.15
2022-11-20T08:05:33.081Z,515.88
2022-11-20T08:08:06.170Z,507.73
2022-11-20T08:10:33.017Z,503.58
2022-11-20T08:13:18.108Z,502.10
2022-11-20T08:15:54.469Z,500.73
2022-11-20T08:18:31.193Z,489.88
2022-11-20T08:21:02.399Z,489.65
2022-11-20T08:23:28.979Z,489.93
2022-11-20T08:25:55.559Z,491.70
2022-11-20T08:28:22.675Z,483.85
2022-11-20T08:30:51.276Z,481.77
2022-11-20T08:33:18.564Z,480.40
2022-11-20T08:35:45.198Z,477.35
2022-11-20T08:38:11.797Z,474.77
2022-11-20T08:40:38.361Z,478.77
2022-11-20T08:43:05.374Z,472.73
2022-11-20T08:51:23.592Z,476.13
2022-11-20T08:53:50.485Z,472.48
2022-11-20T08:56:18.695Z,468.77
2022-11-20T08:59:16.139Z,473.38
2022-11-20T09:01:32.230Z,473.00
2022-11-20T09:03:58.977Z,468.75
2022-11-20T09:06:25.694Z,463.65
2022-11-20T09:08:55.856Z,464.88
2022-11-20T09:11:22.913Z,447.48
2022-11-20T09:13:50.068Z,452.00
2022-11-20T09:16:16.880Z,450.25
2022-11-20T09:18:43.545Z,448.70
2022-11-20T09:21:13.770Z,448.10
2022-11-20T10:29:24.379Z,395.30
2022-11-20T10:32:19.918Z,407.75
2022-11-20T10:35:11.456Z,399.47
2022-11-20T10:37:42.064Z,404.17
2022-11-20T10:40:32.333Z,404.00
2022-11-20T10:43:34.652Z,381.60
2022-11-20T10:46:18.233Z,374.97
2022-11-20T10:48:49.933Z,395.63
2022-11-20T10:51:38.176Z,394.65
2022-11-20T10:54:20.393Z,385.13
2022-11-20T10:56:51.058Z,382.93
2022-11-20T10:59:42.817Z,388.23
2022-11-20T11:02:16.780Z,377.67
2022-11-20T11:04:55.743Z,390.55
2022-11-20T11:07:41.525Z,388.45
2022-11-20T11:10:17.555Z,388.63
2022-11-20T11:12:49.411Z,390.92
2022-11-20T11:15:31.104Z,389.25
2022-11-20T11:17:58.080Z,372.83
2022-11-20T11:20:26.842Z,364.83
2022-11-20T11:22:56.864Z,366.42
2022-11-20T11:25:31.079Z,370.55
2022-11-20T11:28:00.609Z,366.10
2022-11-20T11:30:30.879Z,366.15
2022-11-20T11:33:10.475Z,360.73
2022-11-20T11:35:49.946Z,355.92
2022-11-20T11:38:30.852Z,358.95
2022-11-20T11:40:58.522Z,343.80
2022-11-20T11:43:46.802Z,346.77
2022-11-20T11:46:31.505Z,338.48
2022-11-20T11:48:58.287Z,333.88
2022-11-20T11:51:30.104Z,324.58
2022-11-20T11:53:59.828Z,310.85
2022-11-20T11:56:27.565Z,305.55
2022-11-20T11:58:59.441Z,304.15
2022-11-20T12:01:39.887Z,291.30
2022-11-20T12:04:23.555Z,269.75
2022-11-20T12:06:58.760Z,173.20
2022-11-20T12:09:33.423Z,126.03
2022-11-20T12:12:09.601Z,84.35
2022-11-20T12:14:39.658Z,50.53
2022-11-20T12:17:06.203Z,29.42
2022-11-20T12:19:35.457Z,10.63
2022-11-20T12:22:23.887Z,6.10
2022-11-20T12:25:03.146Z,4.93
2022-11-20T12:27:57.227Z,4.20
2022-11-20T12:30:25.660Z,4.22
2022-11-20T12:33:00.810Z,4.20
2022-11-20T12:35:54.125Z,3.83
2022-11-20T12:38:39.590Z,4.65
2022-11-20T12:41:06.125Z,4.03
2022-11-20T12:44:02.384Z,4.57
2022-11-20T12:47:01.004Z,4.32
2022-11-20T12:50:01.298Z,4.75
2022-11-20T12:52:40.266Z,4.25
2022-11-20T12:55:26.373Z,4.43
2022-11-20T12:58:09.551Z,4.85
2022-11-20T13:00:44.954Z,5.45
2022-11-20T13:03:28.892Z,4.70
2022-11-20T13:06:16.369Z,4.43
2022-11-20T13:08:49.051Z,4.20
2022-11-20T13:11:24.801Z,4.38
2022-11-20T13:14:09.372Z,4.50
2022-11-20T13:16:39.139Z,4.72
2022-11-20T13:19:10.460Z,4.55
2022-11-20T13:21:42.983Z,4.67
2022-11-20T13:24:31.230Z,4.28
2022-11-20T13:27:05.939Z,4.70
2022-11-20T13:29:34.374Z,4.90
2022-11-20T13:32:22.252Z,4.28
2022-11-20T13:35:01.230Z,5.30
2022-11-20T13:37:29.949Z,4.85
2022-11-20T13:40:08.806Z,5.15
2022-11-20T13:43:04.377Z,5.82
2022-11-20T13:45:33.166Z,5.70
2022-11-20T13:48:19.991Z,6.20
2022-11-20T13:51:12.708Z,6.45
2022-11-20T13:54:08.120Z,6.35
2022-11-20T13:57:03.921Z,6.78
2022-11-20T14:00:01.268Z,9.20
2022-11-20T14:02:37.392Z,7.10
2022-11-20T14:05:06.122Z,6.60
2022-11-20T14:07:43.337Z,6.47
2022-11-20T14:10:42.772Z,6.35
2022-11-20T14:13:19.863Z,6.18
2022-11-20T14:15:46.740Z,7.43
2022-11-20T14:18:22.846Z,8.35
2022-11-20T14:20:49.927Z,6.55
2022-11-20T14:23:29.791Z,6.30
2022-11-20T14:25:57.133Z,6.93
2022-11-20T14:28:28.030Z,6.82
2022-11-20T14:30:56.228Z,6.32
2022-11-20T14:33:28.025Z,6.40
2022-11-20T14:35:58.967Z,6.32
2022-11-20T14:38:28.723Z,7.33
2022-11-20T14:41:06.084Z,7.40
2022-11-20T14:43:34.225Z,7.60
2022-11-20T15:19:35.421Z,12.50
2022-11-20T15:22:02.482Z,12.82
2022-11-20T15:24:29.181Z,13.48
2022-11-20T15:26:55.851Z,12.88
2022-11-20T15:29:24.639Z,11.27
2022-11-20T15:31:51.958Z,11.33
2022-11-20T15:34:18.724Z,11.60
2022-11-20T15:36:45.341Z,12.15
2022-11-20T15:39:12.550Z,11.07
2022-11-20T15:41:39.761Z,11.32
2022-11-20T15:44:06.431Z,11.05
2022-11-20T15:46:39.311Z,10.63
2022-11-20T15:49:12.379Z,11.30
2022-11-20T15:51:42.184Z,11.10
2022-11-20T15:54:14.034Z,11.30
2022-11-20T15:56:40.811Z,12.30
2022-11-20T15:59:07.993Z,10.73
2022-11-20T16:01:35.024Z,12.02
2022-11-20T16:04:02.147Z,12.97
2022-11-20T16:06:29.164Z,12.50
2022-11-20T16:08:55.911Z,13.60
2022-11-20T16:11:22.884Z,13.90
2022-11-20T16:14:08.181Z,14.60
2022-11-20T16:16:36.927Z,14.68
2022-11-20T16:19:04.227Z,15.68
2022-11-20T16:21:33.818Z,15.40
2022-11-20T16:24:03.454Z,16.02
2022-11-20T16:26:30.766Z,14.68
2022-11-20T16:28:59.291Z,14.50
2022-11-20T16:31:26.027Z,15.65
2022-11-20T16:33:54.630Z,16.35
2022-11-20T16:36:23.920Z,16.25
2022-11-20T16:38:55.131Z,18.52
2022-11-20T16:41:22.892Z,17.55
2022-11-20T16:43:53.721Z,20.45
2022-11-20T16:46:23.052Z,21.87
2022-11-20T16:48:56.800Z,24.05
2022-11-20T16:51:24.319Z,26.75
2022-11-20T16:53:51.324Z,26.17
2022-11-20T16:56:21.328Z,27.08
2022-11-20T16:58:49.577Z,28.30
2022-11-20T17:01:20.908Z,26.10
2022-11-20T17:03:54.413Z,25.00
2022-11-20T17:06:24.321Z,23.88
2022-11-20T17:08:51.229Z,23.07
2022-11-20T17:11:19.888Z,23.98
2022-11-20T17:13:47.395Z,24.23
2022-11-20T17:16:16.391Z,24.13
2022-11-20T17:18:44.076Z,24.53
2022-11-20T17:21:11.846Z,25.10
2022-11-20T17:23:44.136Z,24.97
2022-11-20T17:26:11.898Z,27.77
2022-11-20T17:28:39.014Z,26.52
2022-11-20T17:31:08.599Z,26.43
2022-11-20T17:33:40.386Z,26.88
2022-11-20T17:36:09.346Z,24.77
2022-11-20T17:38:36.459Z,25.33
2022-11-20T17:41:08.736Z,26.85
2022-11-20T17:43:38.643Z,27.67
2022-11-20T17:46:16.659Z,28.50
2022-11-20T17:48:44.380Z,29.63
2022-11-20T17:51:22.320Z,30.38
2022-11-20T17:53:55.375Z,33.13
2022-11-20T17:56:40.428Z,34.10
2022-11-20T17:59:09.490Z,34.88
2022-11-20T18:01:36.360Z,40.05
2022-11-20T18:04:03.574Z,40.55
2022-11-20T18:06:31.329Z,44.60
2022-11-20T18:08:59.560Z,46.13
2022-11-20T18:11:34.969Z,48.40
2022-11-20T18:14:22.480Z,50.75
2022-11-20T18:16:55.686Z,50.65
2022-11-20T18:19:32.252Z,55.40
2022-11-20T18:22:01.468Z,56.73
2022-11-20T18:24:28.172Z,56.33
2022-11-20T18:26:54.957Z,57.93
2022-11-20T18:29:22.283Z,56.95
2022-11-20T18:31:49.361Z,59.42
2022-11-20T18:34:16.415Z,58.30
2022-11-20T18:36:43.464Z,53.90
2022-11-20T18:39:11.959Z,56.25
2022-11-20T18:41:58.211Z,57.35
2022-11-20T18:44:49.236Z,57.03
2022-11-20T18:47:19.395Z,63.80
2022-11-20T18:49:51.289Z,65.22
2022-11-20T18:52:28.146Z,68.20
2022-11-20T18:54:55.468Z,72.40
2022-11-20T18:57:24.900Z,65.28
2022-11-20T18:59:53.704Z,70.88
2022-11-20T19:02:21.610Z,76.50
2022-11-20T19:04:48.801Z,80.32
2022-11-20T19:07:16.069Z,87.30
2022-11-20T19:09:47.580Z,87.85
2022-11-20T19:12:14.594Z,90.72
2022-11-20T19:14:41.338Z,89.88
2022-11-20T19:17:10.232Z,84.95
2022-11-20T19:19:37.134Z,95.38
2022-11-20T19:22:04.143Z,96.93
2022-11-20T19:24:30.717Z,102.93
2022-11-20T19:26:57.355Z,99.57
2022-11-20T19:29:25.201Z,99.80
2022-11-20T19:31:52.430Z,99.05
2022-11-20T19:34:19.111Z,93.90
2022-11-20T19:36:45.920Z,94.97
2022-11-20T19:39:12.691Z,97.63
2022-11-20T19:41:40.774Z,100.88
2022-11-20T19:44:19.852Z,102.53
2022-11-20T19:46:46.568Z,101.13
2022-11-20T19:49:13.977Z,127.07
2022-11-20T19:51:48.461Z,107.55
2022-11-20T19:54:17.399Z,101.15
2022-11-20T19:56:45.414Z,104.85
2022-11-20T19:59:12.266Z,111.00
2022-11-20T20:01:39.613Z,110.80
2022-11-20T20:04:06.974Z,113.45
2022-11-20T20:06:35.731Z,110.60
2022-11-20T20:09:05.948Z,109.65
2022-11-20T20:11:34.422Z,107.97
2022-11-20T20:14:06.728Z,105.15
2022-11-20T20:16:34.349Z,98.13
2022-11-20T20:19:02.775Z,94.90
2022-11-20T20:21:30.745Z,90.65
2022-11-20T20:23:58.383Z,91.73
2022-11-20T20:26:26.383Z,96.75
2022-11-20T20:28:53.169Z,91.80
2022-11-20T20:31:23.554Z,95.25
2022-11-20T20:33:50.562Z,88.78
2022-11-20T20:36:20.272Z,90.38
2022-11-20T20:38:47.486Z,91.38
2022-11-20T20:41:19.458Z,93.03
2022-11-20T20:44:05.280Z,100.85
2022-11-20T20:46:32.184Z,102.83
2022-11-20T20:48:58.856Z,99.10
2022-11-20T20:51:25.693Z,89.80
2022-11-20T20:53:52.359Z,83.18
2022-11-20T20:56:19.152Z,84.63
2022-11-20T20:58:46.111Z,91.55
2022-11-20T21:01:15.348Z,88.15
2022-11-20T21:03:42.610Z,88.55
2022-11-20T21:06:10.775Z,84.45
2022-11-20T21:08:40.620Z,78.57
2022-11-20T21:11:16.023Z,72.88
2022-11-20T21:13:44.439Z,69.10
2022-11-20T21:16:12.405Z,66.10
2022-11-20T21:18:39.394Z,69.93
2022-11-20T21:21:26.435Z,70.53
2022-11-20T21:23:53.718Z,74.63
2022-11-20T21:26:20.999Z,75.22
2022-11-20T21:28:48.221Z,70.93
2022-11-20T21:31:16.791Z,70.05
2022-11-20T21:33:45.254Z,64.60
2022-11-20T21:36:14.174Z,58.90
2022-11-20T21:38:41.017Z,53.00
2022-11-20T21:41:09.628Z,45.97
2022-11-20T21:43:36.600Z,49.00
2022-11-20T21:46:04.093Z,48.83
2022-11-20T21:48:31.901Z,48.45
2022-11-20T21:51:07.227Z,52.00
2022-11-20T21:53:34.740Z,50.47
2022-11-20T21:56:01.987Z,51.22
2022-11-20T21:58:28.730Z,54.42
2022-11-20T22:00:55.299Z,50.63
2022-11-20T22:03:22.333Z,51.60
2022-11-20T22:05:59.432Z,50.78
2022-11-20T22:08:26.811Z,47.92
2022-11-20T22:11:02.696Z,58.17
2022-11-20T22:13:47.892Z,67.38
2022-11-20T22:16:15.261Z,55.10
2022-11-20T22:18:46.465Z,49.88
2022-11-20T22:21:14.882Z,52.60
2022-11-20T22:23:41.786Z,50.33
2022-11-20T22:26:10.667Z,51.47
2022-11-20T22:28:37.772Z,49.40
2022-11-20T22:31:07.786Z,42.78
2022-11-20T22:33:35.631Z,45.28
2022-11-20T22:36:04.017Z,53.92
2022-11-20T22:38:32.185Z,52.78
2022-11-20T22:41:06.936Z,55.53
2022-11-20T22:43:34.311Z,53.08
2022-11-20T22:46:05.438Z,50.97
2022-11-20T22:48:33.360Z,49.67
2022-11-20T22:51:01.405Z,47.70
2022-11-20T22:53:28.141Z,44.15
2022-11-20T22:55:54.732Z,46.38
2022-11-20T22:58:21.308Z,44.70
2022-11-20T23:00:48.053Z,43.97
2022-11-20T23:03:14.861Z,45.07
2022-11-20T23:05:41.536Z,47.25
2022-11-20T23:08:08.008Z,46.90
2022-11-20T23:10:34.665Z,47.10
2022-11-20T23:13:01.203Z,55.50
2022-11-20T23:15:27.768Z,65.38
2022-11-20T23:17:54.745Z,65.28
2022-11-20T23:20:21.311Z,64.40
2022-11-20T23:22:48.740Z,65.88
2022-11-20T23:25:15.474Z,69.53
2022-11-20T23:27:42.009Z,71.63
2022-11-20T23:30:09.455Z,67.10
2022-11-20T23:32:36.007Z,66.18
2022-11-20T23:35:02.565Z,68.78
2022-11-20T23:37:29.083Z,67.95
2022-11-20T23:39:55.749Z,60.13
2022-11-20T23:42:22.300Z,64.90
2022-11-20T23:44:48.825Z,64.50
2022-11-20T23:47:15.391Z,66.00
2022-11-20T23:49:42.036Z,70.25
2022-11-20T23:52:08.574Z,63.10
2022-11-20T23:54:35.094Z,64.03
2022-11-20T23:57:01.660Z,64.03
2022-11-20T23:59:28.212Z,65.90
